Weather in selectable METAR weather stations

1) Select the Continent / Group:

[Europe]  [Asia]  [Africa]  [North America]  [South America]  
[Central America and Caribbean]  [Oceania]  [Antarctica]  
2) Select the Weather station (City):


METAR = EFHK 141020Z 13004KT 070V190 9999 FEW015 SCT019 BKN043 19/15 Q1015 NOSIG

STATIONEFHK
NAMEHelsinki/Vantaa Arpt, --, FI
OBSERVED14.08.2020 13:20 (14.08.2020 10:20 UTC), 31 min ago
TEMPERATURE19.0°C ( 66°F)
WINDSE (130 degrees) at 5 MPH (4 knots; 2.1 m/s)
HUMIDITY78%
PRESSURE1014.9 hPa
Click here to search the weather station or to give the station identifier
(four-character ICAO Location Indicator) for weather data.